Time;durP1;ratioP1;P1;durP2;ratioP2;P2;SDS_P1;SDS_P2;PMS_P1;PMS_P2;Temp;Humidity;BMP_temperature;BMP_pressure;BME280_temperature;BME280_humidity;BME280_pressure;Samples;Min_cycle;Max_cycle;Signal;HPM_P1;HPM_P2
2021/05/15 00:00:41;;;;;;;6.25;3.10;;;13.40;93.20;;;;;;5092759;28;20119;-70
2021/05/15 00:03:27;;;;;;;5.13;3.28;;;13.30;93.20;;;;;;5074418;28;20040;-69
2021/05/15 00:06:13;;;;;;;4.75;3.40;;;13.30;93.30;;;;;;5076279;28;20060;-70
2021/05/15 00:08:59;;;;;;;4.93;3.13;;;13.30;93.30;;;;;;5074418;28;20032;-70
2021/05/15 00:11:45;;;;;;;4.00;2.83;;;13.20;93.30;;;;;;5073727;28;20185;-70
2021/05/15 00:14:31;;;;;;;7.05;3.30;;;13.20;93.40;;;;;;5072560;28;20103;-70
2021/05/15 00:17:17;;;;;;;6.53;3.70;;;13.20;93.50;;;;;;5071596;28;20028;-71
2021/05/15 00:20:10;;;;;;;5.72;3.55;;;13.20;93.50;;;;;;5052898;28;20028;-69
2021/05/15 00:22:56;;;;;;;5.80;3.83;;;13.20;93.50;;;;;;5073163;28;20442;-69
2021/05/15 00:25:42;;;;;;;5.68;3.75;;;13.10;93.60;;;;;;5097876;28;20480;-70
2021/05/15 00:28:29;;;;;;;5.60;3.50;;;13.00;93.60;;;;;;5090502;28;20032;-70
2021/05/15 00:31:14;;;;;;;6.22;3.88;;;13.00;93.70;;;;;;5098504;28;20035;-70
2021/05/15 00:34:00;;;;;;;6.13;3.33;;;13.00;93.70;;;;;;5089170;28;20024;-71
2021/05/15 00:36:48;;;;;;;7.75;3.65;;;13.00;93.90;;;;;;5094971;28;20107;-71
2021/05/15 00:39:33;;;;;;;7.47;3.67;;;12.90;93.90;;;;;;5080056;28;20054;-70
2021/05/15 00:42:19;;;;;;;5.85;3.92;;;12.90;94.00;;;;;;5076634;28;20025;-70
2021/05/15 00:45:10;;;;;;;5.28;3.83;;;12.80;94.00;;;;;;5076714;28;20044;-71
2021/05/15 00:47:56;;;;;;;6.00;4.05;;;12.70;94.10;;;;;;5078616;28;20033;-71
2021/05/15 00:50:42;;;;;;;8.75;4.07;;;12.70;94.20;;;;;;5078257;28;20441;-71
2021/05/15 00:53:28;;;;;;;5.00;3.92;;;12.60;94.20;;;;;;5074131;28;20387;-71
2021/05/15 00:56:14;;;;;;;7.22;3.95;;;12.60;94.30;;;;;;5062829;28;20446;-72
2021/05/15 00:59:00;;;;;;;6.47;4.78;;;12.60;94.30;;;;;;5070430;28;20088;-71
2021/05/15 01:01:45;;;;;;;8.18;4.13;;;12.50;94.30;;;;;;5070538;28;20045;-72
2021/05/15 01:04:31;;;;;;;6.85;4.28;;;12.50;94.40;;;;;;5090682;28;20042;-72
2021/05/15 01:07:17;;;;;;;7.63;4.45;;;12.40;94.50;;;;;;5053381;28;20037;-71
2021/05/15 01:10:05;;;;;;;6.65;4.70;;;12.40;94.60;;;;;;5071291;28;20028;-72
2021/05/15 01:12:53;;;;;;;6.90;4.65;;;12.40;94.60;;;;;;5070533;28;20028;-71
2021/05/15 01:15:39;;;;;;;7.68;4.90;;;12.40;94.60;;;;;;5072080;28;20063;-72
2021/05/15 01:18:26;;;;;;;7.75;4.85;;;12.30;94.70;;;;;;5071453;28;20063;-71
2021/05/15 01:21:12;;;;;;;8.70;4.85;;;12.30;94.80;;;;;;5051421;28;20025;-72
2021/05/15 01:23:58;;;;;;;7.90;5.20;;;12.20;94.90;;;;;;5054306;28;20029;-71
2021/05/15 01:26:44;;;;;;;10.82;5.15;;;12.20;94.90;;;;;;5052534;28;20109;-72
2021/05/15 01:29:30;;;;;;;7.18;5.30;;;12.10;95.00;;;;;;5051988;28;20155;-71
2021/05/15 01:32:16;;;;;;;7.47;5.25;;;12.10;95.00;;;;;;5071527;28;20460;-72
2021/05/15 01:35:02;;;;;;;6.28;4.50;;;12.10;95.00;;;;;;5084508;28;20028;-71
2021/05/15 01:37:47;;;;;;;5.32;4.05;;;12.10;95.10;;;;;;5082365;28;20115;-71
2021/05/15 01:40:33;;;;;;;9.15;4.47;;;12.00;95.10;;;;;;5071811;28;20079;-71
2021/05/15 01:43:20;;;;;;;7.97;4.30;;;11.90;95.20;;;;;;5066683;28;20091;-70
2021/05/15 01:46:07;;;;;;;7.05;4.38;;;11.90;95.00;;;;;;5061937;28;20028;-71
2021/05/15 01:48:53;;;;;;;6.15;4.40;;;11.90;95.00;;;;;;5069721;28;20390;-71
2021/05/15 01:51:39;;;;;;;9.90;4.22;;;11.90;95.10;;;;;;5068579;28;20031;-71
2021/05/15 01:54:25;;;;;;;6.55;4.22;;;11.90;95.20;;;;;;5065611;28;20070;-71
2021/05/15 01:57:11;;;;;;;7.78;4.50;;;11.90;95.20;;;;;;5075777;28;20388;-69
2021/05/15 01:59:56;;;;;;;7.07;4.80;;;11.80;95.20;;;;;;5051577;28;20120;-69
2021/05/15 02:02:42;;;;;;;7.20;4.97;;;11.80;95.30;;;;;;5058256;28;20547;-69
2021/05/15 02:05:28;;;;;;;7.68;5.13;;;11.70;95.30;;;;;;5070348;28;20504;-69
2021/05/15 02:08:14;;;;;;;8.80;5.20;;;11.70;95.40;;;;;;5068857;28;20029;-71
2021/05/15 02:11:01;;;;;;;6.15;4.35;;;11.70;95.40;;;;;;5072247;28;20536;-71
2021/05/15 02:13:49;;;;;;;7.50;4.57;;;11.60;95.50;;;;;;5057130;28;20082;-71
2021/05/15 02:16:35;;;;;;;12.75;6.75;;;11.60;95.60;;;;;;5059897;28;20536;-72
2021/05/15 02:19:21;;;;;;;7.93;5.00;;;11.50;95.70;;;;;;5061616;28;20541;-70
2021/05/15 02:22:07;;;;;;;8.32;5.30;;;11.50;95.70;;;;;;5068867;28;20075;-70
2021/05/15 02:24:52;;;;;;;9.23;5.10;;;11.50;95.70;;;;;;5069010;28;20032;-71
2021/05/15 02:27:38;;;;;;;9.43;5.57;;;11.40;95.80;;;;;;5070853;28;20021;-70
2021/05/15 02:30:25;;;;;;;9.77;5.80;;;11.40;95.90;;;;;;5050302;28;20059;-70
2021/05/15 02:33:12;;;;;;;7.50;4.95;;;11.40;96.00;;;;;;5051701;28;20064;-70
2021/05/15 02:35:58;;;;;;;9.35;5.78;;;11.40;96.00;;;;;;5069249;28;20032;-71
2021/05/15 02:38:44;;;;;;;7.22;4.72;;;11.40;96.00;;;;;;5067941;28;20098;-69
2021/05/15 02:41:29;;;;;;;7.55;4.95;;;11.40;96.00;;;;;;5077342;28;20016;-70
2021/05/15 02:44:15;;;;;;;10.75;6.00;;;11.40;96.00;;;;;;5087352;28;20089;-70
2021/05/15 02:47:01;;;;;;;8.73;5.88;;;11.40;96.00;;;;;;5072328;28;20507;-70
2021/05/15 02:49:48;;;;;;;8.65;5.45;;;11.40;96.00;;;;;;5068760;28;20416;-72
2021/05/15 02:52:33;;;;;;;9.35;6.18;;;11.40;96.00;;;;;;5069974;28;20472;-72
2021/05/15 02:55:22;;;;;;;10.32;6.85;;;11.30;96.00;;;;;;5060280;28;20040;-72
2021/05/15 02:58:08;;;;;;;10.18;6.03;;;11.30;96.10;;;;;;5054447;28;20481;-70
2021/05/15 03:00:54;;;;;;;9.95;5.35;;;11.30;96.20;;;;;;5052130;28;20052;-71
2021/05/15 03:03:40;;;;;;;9.80;5.13;;;11.30;96.20;;;;;;5054444;28;20108;-70
2021/05/15 03:06:26;;;;;;;7.95;4.80;;;11.30;96.20;;;;;;5070334;28;20028;-72
2021/05/15 03:09:12;;;;;;;12.95;7.00;;;11.30;96.20;;;;;;5070836;28;20084;-70
2021/05/15 03:11:58;;;;;;;8.90;4.88;;;11.30;96.10;;;;;;5090063;28;20036;-70
2021/05/15 03:14:44;;;;;;;6.88;5.18;;;11.30;96.20;;;;;;5077562;28;20476;-69
2021/05/15 03:17:29;;;;;;;6.63;4.55;;;11.30;96.20;;;;;;5073401;28;20110;-69
2021/05/15 03:20:18;;;;;;;11.05;5.70;;;11.30;96.20;;;;;;5057841;28;20068;-69
2021/05/15 03:23:04;;;;;;;7.05;5.35;;;11.30;96.20;;;;;;5072167;28;20119;-69
2021/05/15 03:25:49;;;;;;;8.98;5.55;;;11.30;96.20;;;;;;5053279;28;20029;-69
2021/05/15 03:28:35;;;;;;;8.95;5.38;;;11.30;96.20;;;;;;5053334;28;20040;-70
2021/05/15 03:31:21;;;;;;;9.63;5.47;;;11.30;96.20;;;;;;5052949;28;20072;-69
2021/05/15 03:34:08;;;;;;;8.95;5.30;;;11.20;96.20;;;;;;5062095;28;20432;-68
2021/05/15 03:36:54;;;;;;;6.38;4.50;;;11.20;96.30;;;;;;5073765;28;20028;-69
2021/05/15 03:39:40;;;;;;;7.15;4.50;;;11.20;96.30;;;;;;5084199;28;20035;-69
2021/05/15 03:42:26;;;;;;;7.60;4.43;;;11.20;96.20;;;;;;5089123;28;20024;-71
2021/05/15 03:45:12;;;;;;;7.63;4.97;;;11.20;96.30;;;;;;5088632;28;20122;-72
2021/05/15 03:47:57;;;;;;;6.15;4.50;;;11.20;96.30;;;;;;5084398;28;20051;-72
2021/05/15 03:50:43;;;;;;;7.95;5.07;;;11.20;96.30;;;;;;5053634;28;20041;-71
2021/05/15 03:53:29;;;;;;;7.63;4.72;;;11.20;96.30;;;;;;5065736;28;20830;-72
2021/05/15 03:56:15;;;;;;;9.85;5.00;;;11.20;96.30;;;;;;5054267;28;20021;-72
2021/05/15 03:59:01;;;;;;;8.27;5.70;;;11.20;96.30;;;;;;5061995;28;20032;-73
2021/05/15 04:01:46;;;;;;;9.00;4.82;;;11.20;96.30;;;;;;5068758;28;20048;-73
2021/05/15 04:04:34;;;;;;;9.63;4.93;;;11.20;96.40;;;;;;5076033;28;20036;-72
2021/05/15 04:07:19;;;;;;;8.50;5.30;;;11.10;96.40;;;;;;5084719;28;20024;-72
2021/05/15 04:10:06;;;;;;;9.57;4.80;;;11.10;96.40;;;;;;5071595;28;20032;-72
2021/05/15 04:13:02;;;;;;;5.93;4.60;;;11.20;96.50;;;;;;5058194;28;20488;-73
2021/05/15 04:15:57;;;;;;;6.75;4.50;;;11.20;96.50;;;;;;5052919;28;20056;-72
2021/05/15 04:18:43;;;;;;;;;;;11.20;96.60;;;;;;5058539;28;20031;-73
2021/05/15 04:21:29;;;;;;;7.53;4.88;;;11.30;96.50;;;;;;5073150;28;19927;-73
2021/05/15 04:24:15;;;;;;;7.90;4.82;;;11.30;96.50;;;;;;5062001;28;20096;-73
2021/05/15 04:27:04;;;;;;;6.95;4.78;;;11.30;96.50;;;;;;5053216;28;20025;-75
2021/05/15 04:29:50;;;;;;;7.72;4.97;;;11.40;96.50;;;;;;5053708;28;20028;-75
2021/05/15 04:32:35;;;;;;;8.02;4.53;;;11.50;96.60;;;;;;5073392;28;20182;-75
2021/05/15 04:35:22;;;;;;;6.43;4.85;;;11.50;96.60;;;;;;5075802;28;20488;-75
2021/05/15 04:38:08;;;;;;;7.18;5.50;;;11.60;96.60;;;;;;5090044;28;20073;-75
2021/05/15 04:40:54;;;;;;;6.85;4.45;;;11.60;96.50;;;;;;5069923;28;20024;-75
2021/05/15 04:43:39;;;;;;;7.78;5.28;;;11.70;96.40;;;;;;5056468;28;20052;-75
2021/05/15 04:46:25;;;;;;;7.10;4.85;;;11.80;96.30;;;;;;5072997;28;20366;-75
2021/05/15 04:49:11;;;;;;;8.18;4.63;;;11.80;96.20;;;;;;5059216;28;20103;-75
2021/05/15 04:51:57;;;;;;;8.40;4.55;;;11.80;96.20;;;;;;5036769;28;20044;-75
2021/05/15 04:54:43;;;;;;;7.30;4.90;;;11.80;96.20;;;;;;5067267;28;20040;-75
2021/05/15 04:57:28;;;;;;;6.75;4.65;;;11.90;96.20;;;;;;5072247;28;20021;-74
2021/05/15 05:00:15;;;;;;;8.98;4.80;;;11.90;96.20;;;;;;5086923;28;20052;-75
2021/05/15 05:03:01;;;;;;;5.65;4.50;;;12.00;96.10;;;;;;5084922;28;20037;-75
2021/05/15 05:05:46;;;;;;;7.47;5.03;;;12.00;96.00;;;;;;5083168;28;20033;-75
2021/05/15 05:08:32;;;;;;;7.22;4.55;;;12.00;96.00;;;;;;5055678;28;20031;-75
2021/05/15 05:11:18;;;;;;;6.70;4.88;;;12.10;95.90;;;;;;5052518;28;20037;-75
2021/05/15 05:14:04;;;;;;;8.48;4.50;;;12.20;95.90;;;;;;5052034;28;20033;-75
2021/05/15 05:16:54;;;;;;;7.38;4.82;;;12.30;95.90;;;;;;5068277;28;20028;-75
2021/05/15 05:19:40;;;;;;;6.80;4.55;;;12.40;95.90;;;;;;5052433;28;20041;-76
2021/05/15 05:22:26;;;;;;;5.53;4.05;;;12.60;95.90;;;;;;5072137;28;20035;-75
2021/05/15 05:25:13;;;;;;;5.32;3.92;;;12.70;95.80;;;;;;5087275;28;20070;-75
2021/05/15 05:27:59;;;;;;;6.10;3.90;;;12.80;95.70;;;;;;5084983;28;20040;-75
2021/05/15 05:30:45;;;;;;;5.65;3.92;;;12.90;95.50;;;;;;5055981;28;20518;-76
2021/05/15 05:33:33;;;;;;;6.18;3.80;;;13.00;95.40;;;;;;5066843;28;20079;-76
2021/05/15 05:36:19;;;;;;;7.47;4.38;;;13.10;95.20;;;;;;5064720;28;20059;-77
2021/05/15 05:39:10;;;;;;;7.15;4.75;;;13.20;95.30;;;;;;5079456;28;20078;-76
2021/05/15 05:41:56;;;;;;;7.28;5.00;;;13.30;95.10;;;;;;5071152;28;20038;-74
2021/05/15 05:44:42;;;;;;;6.30;4.68;;;13.40;95.20;;;;;;5082522;28;20119;-74
2021/05/15 05:47:28;;;;;;;7.65;4.60;;;13.40;94.90;;;;;;5071343;28;20025;-73
2021/05/15 05:50:14;;;;;;;8.70;5.30;;;13.50;94.90;;;;;;5069318;28;20029;-72
2021/05/15 05:53:00;;;;;;;7.00;5.40;;;13.60;94.70;;;;;;5050653;28;20029;-73
2021/05/15 05:55:45;;;;;;;8.10;5.45;;;13.70;94.80;;;;;;5050781;28;20481;-73
2021/05/15 05:58:32;;;;;;;7.65;5.40;;;13.70;94.90;;;;;;5056873;28;20085;-75
2021/05/15 06:01:18;;;;;;;8.25;5.20;;;13.90;94.80;;;;;;5084351;28;20056;-74
2021/05/15 06:04:03;;;;;;;7.90;6.18;;;14.00;94.80;;;;;;5074752;28;20048;-74
2021/05/15 06:06:49;;;;;;;7.60;6.20;;;14.00;94.70;;;;;;5074720;28;20028;-71
2021/05/15 06:09:35;;;;;;;9.18;6.15;;;14.10;94.80;;;;;;5061789;28;20028;-71
2021/05/15 06:12:21;;;;;;;7.68;5.68;;;14.20;94.80;;;;;;5070358;28;20024;-71
2021/05/15 06:15:08;;;;;;;10.15;7.30;;;14.30;94.80;;;;;;5085012;28;20062;-71
2021/05/15 06:17:54;;;;;;;11.57;6.78;;;14.30;94.70;;;;;;5091099;28;20021;-71
2021/05/15 06:20:40;;;;;;;12.57;7.70;;;14.40;94.80;;;;;;5090781;28;20036;-71
2021/05/15 06:23:26;;;;;;;9.93;7.30;;;14.50;94.60;;;;;;5086770;28;20040;-71
2021/05/15 06:26:11;;;;;;;10.25;7.30;;;14.60;94.70;;;;;;5080858;28;20358;-71
2021/05/15 06:28:57;;;;;;;10.50;7.82;;;14.70;94.60;;;;;;5054779;28;20040;-71
2021/05/15 06:31:43;;;;;;;11.88;8.15;;;14.80;94.50;;;;;;5055584;28;20032;-71
2021/05/15 06:34:29;;;;;;;11.63;8.00;;;14.90;94.50;;;;;;5057380;28;20056;-72
2021/05/15 06:37:15;;;;;;;12.55;8.43;;;15.00;94.30;;;;;;5048818;28;20024;-71
2021/05/15 06:40:01;;;;;;;12.70;8.10;;;15.00;94.20;;;;;;5081395;28;20020;-70
2021/05/15 06:42:46;;;;;;;10.88;6.90;;;15.00;94.00;;;;;;5048676;28;20029;-70
2021/05/15 06:45:33;;;;;;;11.57;8.13;;;15.10;94.20;;;;;;5069077;28;20116;-70
2021/05/15 06:48:19;;;;;;;11.65;7.50;;;15.20;94.10;;;;;;5054641;28;20049;-70
2021/05/15 06:51:04;;;;;;;11.93;7.70;;;15.30;94.00;;;;;;5083579;28;20495;-71
2021/05/15 06:53:50;;;;;;;12.05;7.55;;;15.30;93.90;;;;;;5072678;28;20399;-70
2021/05/15 06:56:36;;;;;;;9.70;7.50;;;15.40;93.80;;;;;;5080994;28;20020;-72
2021/05/15 06:59:22;;;;;;;9.02;6.65;;;15.50;93.70;;;;;;5073594;28;20416;-72
2021/05/15 07:02:08;;;;;;;10.90;6.55;;;15.50;93.70;;;;;;5067496;28;20055;-71
2021/05/15 07:04:54;;;;;;;9.88;6.25;;;15.60;93.40;;;;;;5074962;28;20036;-71
2021/05/15 07:07:39;;;;;;;7.55;6.45;;;15.70;93.20;;;;;;5071804;28;20548;-72
2021/05/15 07:10:25;;;;;;;10.20;6.20;;;15.80;93.10;;;;;;5068393;28;20033;-71
2021/05/15 07:13:11;;;;;;;9.88;6.70;;;15.90;93.00;;;;;;5067657;28;20037;-71
2021/05/15 07:15:57;;;;;;;7.35;6.07;;;15.90;92.90;;;;;;5049567;28;20450;-71
2021/05/15 07:18:43;;;;;;;9.80;6.68;;;16.00;92.90;;;;;;5058670;28;20067;-71
2021/05/15 07:21:29;;;;;;;8.27;6.10;;;16.10;92.90;;;;;;5090369;28;20392;-72
2021/05/15 07:24:14;;;;;;;9.65;6.85;;;16.20;92.80;;;;;;5086065;28;20402;-73
2021/05/15 07:27:00;;;;;;;9.98;6.07;;;16.20;92.70;;;;;;5089855;28;20078;-72
2021/05/15 07:29:46;;;;;;;8.75;6.32;;;16.20;92.60;;;;;;5073527;28;20047;-71
2021/05/15 07:32:32;;;;;;;7.43;5.53;;;16.30;92.20;;;;;;5069535;28;20032;-70
2021/05/15 07:35:18;;;;;;;7.85;5.95;;;16.30;92.00;;;;;;5064938;28;20025;-71
2021/05/15 07:38:04;;;;;;;7.90;6.07;;;16.40;91.80;;;;;;5050831;28;20033;-71
2021/05/15 07:40:50;;;;;;;8.55;5.57;;;16.50;91.80;;;;;;5069793;28;20052;-71
2021/05/15 07:43:36;;;;;;;7.28;5.70;;;16.50;91.60;;;;;;5068535;28;20040;-71
2021/05/15 07:46:22;;;;;;;6.70;5.30;;;16.60;91.30;;;;;;5068701;28;20017;-71
2021/05/15 07:49:08;;;;;;;8.30;6.13;;;16.70;91.10;;;;;;5075306;28;20036;-71
2021/05/15 07:51:54;;;;;;;9.57;6.32;;;16.70;90.80;;;;;;5089508;28;20059;-71
2021/05/15 07:54:39;;;;;;;7.68;6.00;;;16.80;90.50;;;;;;5088810;28;20385;-72
2021/05/15 07:57:25;;;;;;;7.53;5.88;;;16.80;90.60;;;;;;5093645;28;20452;-71
2021/05/15 08:00:14;;;;;;;9.45;5.93;;;16.80;90.40;;;;;;5090189;28;20067;-71
2021/05/15 08:03:00;;;;;;;7.00;5.30;;;16.90;90.40;;;;;;5090967;28;20485;-71
2021/05/15 08:05:45;;;;;;;8.43;5.47;;;16.90;90.00;;;;;;5069530;28;20024;-71
2021/05/15 08:08:31;;;;;;;8.48;4.80;;;17.00;89.50;;;;;;5067785;28;20503;-71
2021/05/15 08:11:18;;;;;;;6.35;4.80;;;17.00;89.50;;;;;;5063286;28;20530;-70
2021/05/15 08:14:05;;;;;;;7.22;4.88;;;17.10;89.70;;;;;;5063827;28;20461;-70
2021/05/15 08:16:51;;;;;;;7.90;5.20;;;17.20;89.70;;;;;;5052438;28;20033;-71
2021/05/15 08:19:36;;;;;;;9.85;6.47;;;17.20;89.30;;;;;;5076626;28;20119;-71
2021/05/15 08:22:22;;;;;;;7.53;5.93;;;17.30;89.30;;;;;;5072593;28;20419;-72
2021/05/15 08:25:09;;;;;;;9.07;6.38;;;17.40;89.60;;;;;;5069984;28;20041;-71
2021/05/15 08:27:58;;;;;;;8.40;5.97;;;17.40;89.10;;;;;;5072852;28;20029;-72
2021/05/15 08:30:44;;;;;;;10.68;6.72;;;17.50;88.70;;;;;;5073494;28;20039;-71
2021/05/15 08:33:30;;;;;;;8.48;6.50;;;17.60;89.20;;;;;;5070186;28;20447;-70
2021/05/15 08:36:16;;;;;;;9.73;6.45;;;17.60;88.60;;;;;;5083509;28;20491;-70
2021/05/15 08:39:05;;;;;;;7.38;6.30;;;17.60;88.60;;;;;;5089067;28;20115;-72
2021/05/15 08:41:51;;;;;;;7.78;6.00;;;17.70;88.70;;;;;;5092682;28;20103;-71
2021/05/15 08:44:38;;;;;;;8.05;6.47;;;17.80;88.20;;;;;;5076798;28;20404;-72
2021/05/15 08:47:24;;;;;;;8.93;7.07;;;17.90;87.60;;;;;;5072655;28;20022;-72
2021/05/15 08:50:15;;;;;;;8.65;6.88;;;18.00;88.00;;;;;;5053723;28;20366;-71
2021/05/15 08:53:01;;;;;;;11.00;6.80;;;18.10;88.10;;;;;;5051983;28;20108;-71
2021/05/15 08:55:48;;;;;;;7.22;6.03;;;18.10;87.60;;;;;;5052464;28;20037;-71
2021/05/15 08:58:36;;;;;;;8.30;6.25;;;18.20;87.30;;;;;;5057774;28;20509;-71
2021/05/15 09:01:22;;;;;;;8.10;5.97;;;18.30;86.50;;;;;;5092121;28;20048;-71
2021/05/15 09:04:08;;;;;;;6.90;6.20;;;18.50;86.30;;;;;;5065262;28;20074;-71
2021/05/15 09:06:54;;;;;;;7.85;5.60;;;18.50;86.40;;;;;;5071135;28;20404;-71
2021/05/15 09:09:40;;;;;;;8.40;5.70;;;18.60;86.10;;;;;;5070500;28;20428;-71
2021/05/15 09:12:26;;;;;;;6.95;5.07;;;18.70;85.00;;;;;;5071792;28;20574;-71
2021/05/15 09:15:14;;;;;;;7.13;5.45;;;18.80;84.40;;;;;;5067431;28;20041;-71
2021/05/15 09:18:01;;;;;;;7.80;5.45;;;19.00;83.30;;;;;;5052234;28;20048;-71
2021/05/15 09:20:49;;;;;;;12.00;6.15;;;19.00;82.60;;;;;;5051673;28;20028;-71
2021/05/15 09:23:40;;;;;;;7.30;5.45;;;19.10;81.70;;;;;;5055737;28;20025;-71
2021/05/15 09:26:27;;;;;;;7.07;5.22;;;19.20;81.10;;;;;;5071785;28;20480;-71
2021/05/15 09:29:13;;;;;;;7.80;5.60;;;19.20;80.90;;;;;;5067641;28;20459;-71
2021/05/15 09:32:02;;;;;;;7.45;5.43;;;19.30;80.60;;;;;;5070855;28;20115;-72
2021/05/15 09:34:49;;;;;;;6.50;5.03;;;19.50;81.00;;;;;;5082652;28;20032;-71
2021/05/15 09:37:38;;;;;;;5.25;4.47;;;19.60;80.20;;;;;;5076056;28;20110;-71
2021/05/15 09:40:28;;;;;;;6.72;4.57;;;19.70;78.90;;;;;;5070509;28;20040;-71
2021/05/15 09:43:14;;;;;;;6.63;3.85;;;19.90;77.60;;;;;;5069283;28;20040;-72
2021/05/15 09:46:00;;;;;;;5.97;4.30;;;19.90;76.90;;;;;;5070954;28;20024;-72
2021/05/15 09:48:52;;;;;;;6.28;4.28;;;20.00;77.20;;;;;;5066166;28;20502;-73
2021/05/15 09:51:40;;;;;;;5.72;4.47;;;20.00;77.30;;;;;;5056218;28;20035;-72
2021/05/15 09:54:30;;;;;;;5.70;4.40;;;20.10;76.70;;;;;;5067297;28;20546;-71
2021/05/15 09:57:16;;;;;;;5.25;4.35;;;20.10;77.10;;;;;;5073160;28;20040;-71
2021/05/15 10:00:12;;;;;;;5.65;4.18;;;20.20;76.90;;;;;;5053596;28;20519;-71
2021/05/15 10:02:58;;;;;;;5.60;3.90;;;20.20;76.40;;;;;;5062923;28;20043;-72
2021/05/15 10:05:44;;;;;;;7.80;4.18;;;20.30;75.90;;;;;;5064057;28;20055;-71
2021/05/15 10:08:31;;;;;;;5.45;4.38;;;20.50;75.90;;;;;;5071968;28;20032;-71
2021/05/15 10:11:17;;;;;;;4.38;3.38;;;20.60;75.50;;;;;;5073202;28;20064;-71
2021/05/15 10:14:04;;;;;;;5.40;3.78;;;20.80;74.90;;;;;;5075382;28;20032;-71
2021/05/15 10:16:50;;;;;;;5.00;3.08;;;20.80;73.30;;;;;;5067768;28;20029;-71
2021/05/15 10:19:36;;;;;;;4.80;3.08;;;20.90;73.20;;;;;;5080316;28;20384;-72
2021/05/15 10:22:21;;;;;;;5.32;2.63;;;20.90;71.60;;;;;;5077624;28;20028;-70
2021/05/15 10:25:17;;;;;;;4.07;2.55;;;20.90;71.90;;;;;;5083316;28;20415;-71
2021/05/15 10:28:03;;;;;;;;;;;20.90;69.60;;;;;;5068820;28;20392;-71
2021/05/15 10:30:49;;;;;;;3.70;2.03;;;21.00;71.10;;;;;;5067597;28;19924;-70
2021/05/15 10:33:35;;;;;;;2.45;2.08;;;21.10;69.90;;;;;;5064214;28;20027;-72
2021/05/15 10:36:23;;;;;;;3.67;2.15;;;21.20;69.10;;;;;;5068000;28;20504;-70
2021/05/15 10:39:09;;;;;;;3.47;2.20;;;21.40;67.90;;;;;;5074531;28;20098;-72
2021/05/15 10:41:55;;;;;;;3.88;2.22;;;21.50;68.50;;;;;;5069117;28;20492;-70
2021/05/15 10:44:43;;;;;;;2.30;1.92;;;21.50;66.40;;;;;;5066609;28;20041;-68
2021/05/15 10:47:43;;;;;;;3.25;1.80;;;21.50;64.40;;;;;;5069294;28;20443;-71
2021/05/15 10:50:29;;;;;;;2.45;1.60;;;21.50;64.10;;;;;;5073348;28;20039;-70
2021/05/15 10:53:20;;;;;;;2.67;1.60;;;21.50;63.60;;;;;;5069277;28;20028;-69
2021/05/15 10:56:12;;;;;;;2.58;1.48;;;21.50;62.40;;;;;;5069418;28;20050;-70
2021/05/15 10:59:16;;;;;;;1.85;1.48;;;21.60;62.40;;;;;;5068146;28;20126;-71
2021/05/15 11:02:12;;;;;;;6.68;1.52;;;21.80;62.00;;;;;;5050762;28;20083;-70
2021/05/15 11:05:02;;;;;;;4.20;1.52;;;21.80;61.20;;;;;;5069099;28;20056;-70
2021/05/15 11:07:48;;;;;;;2.08;1.58;;;21.90;61.80;;;;;;5067747;28;20392;-70
2021/05/15 11:10:37;;;;;;;2.03;1.35;;;21.80;60.60;;;;;;5055721;28;20029;-69
2021/05/15 11:13:22;;;;;;;4.10;1.63;;;21.80;60.40;;;;;;5067904;28;20059;-70
2021/05/15 11:16:08;;;;;;;2.90;1.58;;;21.80;60.60;;;;;;5069630;28;20472;-70
2021/05/15 11:19:05;;;;;;;1.83;1.33;;;21.80;60.40;;;;;;5069097;28;20508;-70
2021/05/15 11:21:52;;;;;;;1.88;1.50;;;21.80;59.70;;;;;;5051364;28;20163;-70
2021/05/15 11:24:38;;;;;;;2.85;1.30;;;21.80;60.60;;;;;;5068813;28;20028;-69
2021/05/15 11:27:24;;;;;;;2.63;1.30;;;21.70;60.30;;;;;;5068900;28;20392;-69
2021/05/15 11:30:14;;;;;;;2.33;1.40;;;21.70;60.00;;;;;;5071909;28;20120;-69
2021/05/15 11:33:11;;;;;;;2.20;1.10;;;21.80;61.00;;;;;;5055870;28;20064;-70
2021/05/15 11:35:58;;;;;;;3.50;1.25;;;21.80;60.90;;;;;;5057099;28;20444;-68
2021/05/15 11:38:46;;;;;;;4.30;1.48;;;21.80;60.00;;;;;;5071407;28;20079;-69
2021/05/15 11:41:32;;;;;;;3.00;1.33;;;21.90;59.90;;;;;;5071938;28;20033;-69
2021/05/15 11:44:21;;;;;;;3.63;1.55;;;21.90;60.30;;;;;;5081016;28;20048;-70
2021/05/15 11:47:10;;;;;;;1.73;1.15;;;22.00;59.80;;;;;;5078537;28;20032;-70
2021/05/15 11:50:00;;;;;;;4.03;1.23;;;22.00;58.90;;;;;;5072965;28;20046;-69
2021/05/15 11:52:46;;;;;;;1.60;1.20;;;21.90;58.70;;;;;;5073036;28;20040;-68
2021/05/15 11:55:33;;;;;;;3.63;1.42;;;21.90;58.80;;;;;;5073472;28;20178;-69
2021/05/15 11:58:19;;;;;;;1.55;1.00;;;21.90;59.40;;;;;;5072280;28;20548;-69
2021/05/15 12:01:05;;;;;;;3.70;1.40;;;22.00;59.60;;;;;;5070002;28;20044;-69
2021/05/15 12:03:52;;;;;;;2.85;1.10;;;22.00;60.30;;;;;;5067426;28;20044;-68
2021/05/15 12:06:38;;;;;;;3.30;0.98;;;22.00;60.10;;;;;;5073745;28;20104;-69
2021/05/15 12:09:27;;;;;;;2.78;1.00;;;22.00;59.40;;;;;;5072111;28;20027;-69
2021/05/15 12:12:13;;;;;;;1.95;1.20;;;22.00;59.90;;;;;;5057399;28;20116;-69
2021/05/15 12:15:00;;;;;;;4.03;1.20;;;22.00;59.50;;;;;;5076724;28;20035;-69
2021/05/15 12:17:46;;;;;;;1.30;0.93;;;22.00;60.00;;;;;;5056411;28;20114;-69
2021/05/15 12:20:43;;;;;;;1.67;1.00;;;22.20;59.60;;;;;;5072641;28;20523;-69
2021/05/15 12:23:29;;;;;;;1.20;0.88;;;22.20;59.10;;;;;;5055383;28;20047;-70
2021/05/15 12:26:17;;;;;;;2.05;1.00;;;22.20;59.20;;;;;;5060614;28;20055;-70
2021/05/15 12:29:04;;;;;;;1.55;0.80;;;22.30;56.80;;;;;;5054303;28;20063;-70
2021/05/15 12:31:50;;;;;;;2.13;0.90;;;22.20;56.20;;;;;;5071946;28;20048;-70
2021/05/15 12:34:37;;;;;;;3.08;0.93;;;22.30;54.30;;;;;;5066515;28;20078;-71
2021/05/15 12:37:23;;;;;;;2.40;1.00;;;22.20;53.20;;;;;;5070613;28;20078;-70
2021/05/15 12:40:12;;;;;;;2.90;1.10;;;22.20;53.10;;;;;;5072100;28;20033;-70
2021/05/15 12:43:11;;;;;;;3.97;1.00;;;22.20;52.30;;;;;;5069153;28;20047;-69
2021/05/15 12:46:06;;;;;;;1.73;1.05;;;22.30;52.40;;;;;;5073143;28;20044;-70
2021/05/15 12:48:55;;;;;;;3.25;1.10;;;22.20;52.10;;;;;;5083483;28;20027;-71
2021/05/15 12:51:45;;;;;;;2.35;0.90;;;22.20;51.90;;;;;;5072414;28;20040;-69
2021/05/15 12:54:32;;;;;;;1.10;1.00;;;22.20;52.40;;;;;;5066936;28;20024;-68
2021/05/15 12:57:18;;;;;;;2.10;0.90;;;22.30;51.90;;;;;;5065479;28;20041;-72
2021/05/15 13:00:04;;;;;;;2.40;1.00;;;22.40;52.50;;;;;;5074511;28;20021;-70
2021/05/15 13:03:01;;;;;;;1.13;0.93;;;22.30;52.30;;;;;;5053629;28;20045;-70
2021/05/15 13:05:47;;;;;;;1.83;0.90;;;22.30;52.60;;;;;;5070623;28;20040;-70
2021/05/15 13:08:34;;;;;;;1.27;0.90;;;22.30;52.30;;;;;;5073560;28;20029;-70
2021/05/15 13:11:21;;;;;;;1.65;1.05;;;22.40;51.50;;;;;;5065928;28;20025;-70
2021/05/15 13:14:07;;;;;;;1.40;1.13;;;22.50;51.60;;;;;;5073158;28;20385;-70
2021/05/15 13:16:55;;;;;;;4.43;1.88;;;22.60;52.50;;;;;;5072169;28;20503;-69
2021/05/15 13:19:41;;;;;;;5.50;1.10;;;22.70;52.40;;;;;;5065908;28;20774;-71
2021/05/15 13:22:27;;;;;;;1.92;1.00;;;22.70;51.70;;;;;;5064756;28;20033;-68
2021/05/15 13:25:15;;;;;;;4.18;1.40;;;22.80;51.70;;;;;;5070966;28;20044;-69
2021/05/15 13:27:58;;;;;;;2.47;1.23;;;22.80;51.90;;;;;;5057339;28;20396;-70
2021/05/15 13:30:43;;;;;;;4.28;1.25;;;22.70;52.10;;;;;;5067237;28;20040;-70
2021/05/15 13:33:29;;;;;;;1.55;1.10;;;22.60;51.60;;;;;;5061957;28;20029;-70
2021/05/15 13:36:15;;;;;;;6.00;1.75;;;22.40;52.20;;;;;;5073804;28;20203;-69
2021/05/15 13:39:02;;;;;;;2.33;1.35;;;22.20;52.40;;;;;;5069827;28;20030;-69
2021/05/15 13:41:47;;;;;;;3.00;1.73;;;22.10;53.80;;;;;;5051918;28;20040;-69
2021/05/15 13:44:33;;;;;;;1.85;1.33;;;21.90;56.00;;;;;;5062245;28;20033;-68
2021/05/15 13:47:17;;;;;;;3.67;1.90;;;21.80;56.40;;;;;;5065565;28;20154;-69
2021/05/15 13:50:03;;;;;;;2.45;1.52;;;21.80;57.20;;;;;;5076539;28;20048;-67
2021/05/15 13:52:50;;;;;;;2.67;1.63;;;21.70;58.60;;;;;;5069743;28;20420;-69
2021/05/15 13:55:35;;;;;;;3.92;2.00;;;21.60;59.20;;;;;;5077542;28;20539;-70
2021/05/15 13:58:22;;;;;;;3.53;1.90;;;21.60;59.70;;;;;;5068640;28;20035;-69
2021/05/15 14:01:09;;;;;;;2.42;1.40;;;21.50;60.40;;;;;;5068958;28;20040;-68
2021/05/15 14:03:55;;;;;;;4.32;1.80;;;21.60;61.70;;;;;;5051464;28;20091;-69
2021/05/15 14:06:40;;;;;;;5.95;2.97;;;21.80;62.70;;;;;;5057293;28;20478;-68
2021/05/15 14:09:26;;;;;;;3.83;2.20;;;21.90;62.40;;;;;;5069446;28;20441;-69
2021/05/15 14:12:10;;;;;;;3.63;2.20;;;22.10;62.50;;;;;;5055677;28;20396;-68
2021/05/15 14:14:54;;;;;;;6.00;2.53;;;22.20;62.90;;;;;;5064970;28;20043;-69
2021/05/15 14:17:38;;;;;;;3.17;2.03;;;22.30;61.90;;;;;;5070537;28;20039;-69
2021/05/15 14:20:24;;;;;;;3.65;2.05;;;22.40;60.10;;;;;;5069144;28;20036;-69
2021/05/15 14:23:11;;;;;;;2.90;1.30;;;22.50;59.70;;;;;;5049450;28;20029;-70
2021/05/15 14:25:57;;;;;;;2.05;1.40;;;22.50;57.60;;;;;;5064810;28;20037;-70